sensor_id;sensor_type;location;lat;lon;timestamp;temperature;humidity
67942;SHT31;54731;42.600;23.476;2022-09-09T00:00:25;18.45;62.85
67942;SHT31;54731;42.600;23.476;2022-09-09T00:02:57;18.42;62.27
67942;SHT31;54731;42.600;23.476;2022-09-09T00:05:31;18.45;62.71
67942;SHT31;54731;42.600;23.476;2022-09-09T00:07:59;18.36;63.13
67942;SHT31;54731;42.600;23.476;2022-09-09T00:10:32;18.32;63.25
67942;SHT31;54731;42.600;23.476;2022-09-09T00:21:37;18.31;63.04
67942;SHT31;54731;42.600;23.476;2022-09-09T00:24:52;18.36;62.69
67942;SHT31;54731;42.600;23.476;2022-09-09T00:32:41;18.48;61.71
67942;SHT31;54731;42.600;23.476;2022-09-09T00:35:16;18.51;61.73
67942;SHT31;54731;42.600;23.476;2022-09-09T00:37:45;18.43;62.32
67942;SHT31;54731;42.600;23.476;2022-09-09T00:40:35;18.41;62.39
67942;SHT31;54731;42.600;23.476;2022-09-09T00:51:29;18.19;63.17
67942;SHT31;54731;42.600;23.476;2022-09-09T00:59:28;18.13;63.53
67942;SHT31;54731;42.600;23.476;2022-09-09T01:01:56;18.15;63.91
67942;SHT31;54731;42.600;23.476;2022-09-09T01:04:33;18.15;63.62
67942;SHT31;54731;42.600;23.476;2022-09-09T01:07:16;18.15;63.22
67942;SHT31;54731;42.600;23.476;2022-09-09T01:09:57;18.16;63.42
67942;SHT31;54731;42.600;23.476;2022-09-09T01:14:54;18.12;63.37
67942;SHT31;54731;42.600;23.476;2022-09-09T01:20:04;18.15;63.53
67942;SHT31;54731;42.600;23.476;2022-09-09T01:23:27;18.11;63.70
67942;SHT31;54731;42.600;23.476;2022-09-09T01:28:28;18.12;63.51
67942;SHT31;54731;42.600;23.476;2022-09-09T01:30:54;18.09;63.68
67942;SHT31;54731;42.600;23.476;2022-09-09T01:33:21;18.08;63.84
67942;SHT31;54731;42.600;23.476;2022-09-09T01:35:52;18.04;63.50
67942;SHT31;54731;42.600;23.476;2022-09-09T01:38:22;18.08;63.53
67942;SHT31;54731;42.600;23.476;2022-09-09T01:40:50;18.05;63.62
67942;SHT31;54731;42.600;23.476;2022-09-09T01:43:19;18.08;63.39
67942;SHT31;54731;42.600;23.476;2022-09-09T01:45:46;18.09;63.02
67942;SHT31;54731;42.600;23.476;2022-09-09T01:48:14;18.08;63.58
67942;SHT31;54731;42.600;23.476;2022-09-09T01:50:40;18.04;63.78
67942;SHT31;54731;42.600;23.476;2022-09-09T01:53:05;18.01;64.08
67942;SHT31;54731;42.600;23.476;2022-09-09T01:55:42;17.98;64.28
67942;SHT31;54731;42.600;23.476;2022-09-09T02:01:12;17.94;64.14
67942;SHT31;54731;42.600;23.476;2022-09-09T02:03:44;17.87;64.19
67942;SHT31;54731;42.600;23.476;2022-09-09T02:08:48;17.81;65.12
67942;SHT31;54731;42.600;23.476;2022-09-09T02:11:19;17.71;65.84
67942;SHT31;54731;42.600;23.476;2022-09-09T02:13:47;17.66;66.32
67942;SHT31;54731;42.600;23.476;2022-09-09T02:16:48;17.58;66.11
67942;SHT31;54731;42.600;23.476;2022-09-09T02:19:22;17.54;66.51
67942;SHT31;54731;42.600;23.476;2022-09-09T02:21:52;17.51;66.55
67942;SHT31;54731;42.600;23.476;2022-09-09T02:24:19;17.47;67.07
67942;SHT31;54731;42.600;23.476;2022-09-09T02:26:46;17.47;66.79
67942;SHT31;54731;42.600;23.476;2022-09-09T02:29:31;17.43;66.33
67942;SHT31;54731;42.600;23.476;2022-09-09T02:32:01;17.43;67.09
67942;SHT31;54731;42.600;23.476;2022-09-09T02:34:29;17.37;67.41
67942;SHT31;54731;42.600;23.476;2022-09-09T02:36:57;17.30;66.81
67942;SHT31;54731;42.600;23.476;2022-09-09T02:39:24;17.27;66.82
67942;SHT31;54731;42.600;23.476;2022-09-09T02:41:49;17.28;66.68
67942;SHT31;54731;42.600;23.476;2022-09-09T02:44:17;17.28;66.62
67942;SHT31;54731;42.600;23.476;2022-09-09T02:52:18;17.33;66.31
67942;SHT31;54731;42.600;23.476;2022-09-09T02:54:45;17.27;66.21
67942;SHT31;54731;42.600;23.476;2022-09-09T02:59:39;17.27;66.30
67942;SHT31;54731;42.600;23.476;2022-09-09T03:02:05;17.23;66.44
67942;SHT31;54731;42.600;23.476;2022-09-09T03:04:30;17.23;66.51
67942;SHT31;54731;42.600;23.476;2022-09-09T03:06:57;17.27;66.09
67942;SHT31;54731;42.600;23.476;2022-09-09T03:09:23;17.27;65.90
67942;SHT31;54731;42.600;23.476;2022-09-09T03:11:49;17.26;65.61
67942;SHT31;54731;42.600;23.476;2022-09-09T03:14:15;17.20;65.86
67942;SHT31;54731;42.600;23.476;2022-09-09T03:16:41;17.16;65.79
67942;SHT31;54731;42.600;23.476;2022-09-09T03:19:08;17.20;66.01
67942;SHT31;54731;42.600;23.476;2022-09-09T03:21:33;17.15;66.55
67942;SHT31;54731;42.600;23.476;2022-09-09T03:23:59;17.16;67.48
67942;SHT31;54731;42.600;23.476;2022-09-09T03:26:25;17.13;67.77
67942;SHT31;54731;42.600;23.476;2022-09-09T03:28:50;17.02;68.19
67942;SHT31;54731;42.600;23.476;2022-09-09T03:31:17;16.97;68.31
67942;SHT31;54731;42.600;23.476;2022-09-09T03:33:44;16.99;68.40
67942;SHT31;54731;42.600;23.476;2022-09-09T03:36:10;17.00;68.38
67942;SHT31;54731;42.600;23.476;2022-09-09T03:38:36;16.95;68.62
67942;SHT31;54731;42.600;23.476;2022-09-09T03:41:02;16.93;68.54
67942;SHT31;54731;42.600;23.476;2022-09-09T03:43:28;16.92;69.03
67942;SHT31;54731;42.600;23.476;2022-09-09T03:45:55;16.87;68.88
67942;SHT31;54731;42.600;23.476;2022-09-09T03:48:24;16.86;69.19
67942;SHT31;54731;42.600;23.476;2022-09-09T03:50:52;16.80;69.48
67942;SHT31;54731;42.600;23.476;2022-09-09T03:53:19;16.77;69.03
67942;SHT31;54731;42.600;23.476;2022-09-09T03:55:53;16.73;69.12
67942;SHT31;54731;42.600;23.476;2022-09-09T03:58:21;16.71;69.00
67942;SHT31;54731;42.600;23.476;2022-09-09T04:00:57;16.71;69.52
67942;SHT31;54731;42.600;23.476;2022-09-09T04:03:23;16.65;69.55
67942;SHT31;54731;42.600;23.476;2022-09-09T04:05:53;16.66;69.86
67942;SHT31;54731;42.600;23.476;2022-09-09T04:08:19;16.65;69.49
67942;SHT31;54731;42.600;23.476;2022-09-09T04:10:46;16.62;69.56
67942;SHT31;54731;42.600;23.476;2022-09-09T04:13:13;16.61;69.65
67942;SHT31;54731;42.600;23.476;2022-09-09T04:15:40;16.62;70.19
67942;SHT31;54731;42.600;23.476;2022-09-09T04:18:05;16.61;70.67
67942;SHT31;54731;42.600;23.476;2022-09-09T04:20:31;16.58;70.79
67942;SHT31;54731;42.600;23.476;2022-09-09T04:22:57;16.56;70.84
67942;SHT31;54731;42.600;23.476;2022-09-09T04:25:23;16.55;71.47
67942;SHT31;54731;42.600;23.476;2022-09-09T04:27:56;16.51;71.91
67942;SHT31;54731;42.600;23.476;2022-09-09T04:30:22;16.52;72.28
67942;SHT31;54731;42.600;23.476;2022-09-09T04:32:48;16.55;72.16
67942;SHT31;54731;42.600;23.476;2022-09-09T04:35:14;16.47;72.20
67942;SHT31;54731;42.600;23.476;2022-09-09T04:37:40;16.48;72.00
67942;SHT31;54731;42.600;23.476;2022-09-09T04:40:06;16.53;71.08
67942;SHT31;54731;42.600;23.476;2022-09-09T04:42:35;16.59;71.51
67942;SHT31;54731;42.600;23.476;2022-09-09T04:45:01;16.53;71.56
67942;SHT31;54731;42.600;23.476;2022-09-09T04:47:27;16.56;71.51
67942;SHT31;54731;42.600;23.476;2022-09-09T04:49:52;16.58;71.45
67942;SHT31;54731;42.600;23.476;2022-09-09T04:52:20;16.58;71.47
67942;SHT31;54731;42.600;23.476;2022-09-09T04:54:45;16.51;71.93
67942;SHT31;54731;42.600;23.476;2022-09-09T04:57:11;16.52;72.02
67942;SHT31;54731;42.600;23.476;2022-09-09T04:59:36;16.58;72.17
67942;SHT31;54731;42.600;23.476;2022-09-09T05:02:03;16.52;72.31
67942;SHT31;54731;42.600;23.476;2022-09-09T05:04:29;16.52;72.03
67942;SHT31;54731;42.600;23.476;2022-09-09T05:06:55;16.61;72.32
67942;SHT31;54731;42.600;23.476;2022-09-09T05:09:21;16.62;71.94
67942;SHT31;54731;42.600;23.476;2022-09-09T05:11:46;16.72;69.70
67942;SHT31;54731;42.600;23.476;2022-09-09T05:14:12;16.80;68.15
67942;SHT31;54731;42.600;23.476;2022-09-09T05:16:37;16.97;66.63
67942;SHT31;54731;42.600;23.476;2022-09-09T05:19:03;17.15;65.51
67942;SHT31;54731;42.600;23.476;2022-09-09T05:21:29;17.23;65.88
67942;SHT31;54731;42.600;23.476;2022-09-09T05:23:56;17.27;67.67
67942;SHT31;54731;42.600;23.476;2022-09-09T05:26:22;17.33;66.37
67942;SHT31;54731;42.600;23.476;2022-09-09T05:28:49;17.38;65.63
67942;SHT31;54731;42.600;23.476;2022-09-09T05:31:16;17.51;65.17
67942;SHT31;54731;42.600;23.476;2022-09-09T05:33:43;17.71;63.58
67942;SHT31;54731;42.600;23.476;2022-09-09T05:36:11;17.82;63.11
67942;SHT31;54731;42.600;23.476;2022-09-09T05:38:39;17.88;64.04
67942;SHT31;54731;42.600;23.476;2022-09-09T05:41:05;17.97;63.54
67942;SHT31;54731;42.600;23.476;2022-09-09T05:43:30;18.06;62.88
67942;SHT31;54731;42.600;23.476;2022-09-09T05:46:08;18.16;62.96
67942;SHT31;54731;42.600;23.476;2022-09-09T05:48:39;18.22;66.03
67942;SHT31;54731;42.600;23.476;2022-09-09T05:51:06;18.21;67.38
67942;SHT31;54731;42.600;23.476;2022-09-09T05:53:32;18.15;67.81
67942;SHT31;54731;42.600;23.476;2022-09-09T05:56:07;18.06;68.00
67942;SHT31;54731;42.600;23.476;2022-09-09T05:58:36;17.94;67.75
67942;SHT31;54731;42.600;23.476;2022-09-09T06:01:13;17.85;68.59
67942;SHT31;54731;42.600;23.476;2022-09-09T06:03:41;17.82;68.55
67942;SHT31;54731;42.600;23.476;2022-09-09T06:06:09;17.84;69.14
67942;SHT31;54731;42.600;23.476;2022-09-09T06:08:36;17.91;69.27
67942;SHT31;54731;42.600;23.476;2022-09-09T06:11:08;17.91;70.02
67942;SHT31;54731;42.600;23.476;2022-09-09T06:13:34;17.87;68.99
67942;SHT31;54731;42.600;23.476;2022-09-09T06:16:00;17.82;68.43
67942;SHT31;54731;42.600;23.476;2022-09-09T06:18:26;17.88;68.93
67942;SHT31;54731;42.600;23.476;2022-09-09T06:20:59;17.90;68.77
67942;SHT31;54731;42.600;23.476;2022-09-09T06:23:30;17.91;68.59
67942;SHT31;54731;42.600;23.476;2022-09-09T06:26:11;17.90;68.58
67942;SHT31;54731;42.600;23.476;2022-09-09T06:28:37;17.90;68.30
67942;SHT31;54731;42.600;23.476;2022-09-09T06:31:08;17.88;69.39
67942;SHT31;54731;42.600;23.476;2022-09-09T06:33:36;17.91;68.26
67942;SHT31;54731;42.600;23.476;2022-09-09T06:36:05;17.81;68.34
67942;SHT31;54731;42.600;23.476;2022-09-09T06:38:31;17.91;68.49
67942;SHT31;54731;42.600;23.476;2022-09-09T06:40:59;17.94;67.46
67942;SHT31;54731;42.600;23.476;2022-09-09T06:43:25;18.00;67.64
67942;SHT31;54731;42.600;23.476;2022-09-09T06:46:00;18.05;67.49
67942;SHT31;54731;42.600;23.476;2022-09-09T06:48:27;18.12;67.02
67942;SHT31;54731;42.600;23.476;2022-09-09T06:51:16;18.13;67.56
67942;SHT31;54731;42.600;23.476;2022-09-09T06:53:44;18.19;67.48
67942;SHT31;54731;42.600;23.476;2022-09-09T06:58:39;18.26;67.24
67942;SHT31;54731;42.600;23.476;2022-09-09T07:01:10;18.28;67.01
67942;SHT31;54731;42.600;23.476;2022-09-09T07:03:38;18.36;67.25
67942;SHT31;54731;42.600;23.476;2022-09-09T07:06:05;18.41;67.14
67942;SHT31;54731;42.600;23.476;2022-09-09T07:08:31;18.43;66.90
67942;SHT31;54731;42.600;23.476;2022-09-09T07:11:03;18.46;67.62
67942;SHT31;54731;42.600;23.476;2022-09-09T07:13:34;18.55;67.15
67942;SHT31;54731;42.600;23.476;2022-09-09T07:16:11;18.62;66.54
67942;SHT31;54731;42.600;23.476;2022-09-09T07:18:39;18.67;66.17
67942;SHT31;54731;42.600;23.476;2022-09-09T07:21:05;18.70;65.13
67942;SHT31;54731;42.600;23.476;2022-09-09T07:23:32;18.79;64.82
67942;SHT31;54731;42.600;23.476;2022-09-09T07:25:58;18.89;65.54
67942;SHT31;54731;42.600;23.476;2022-09-09T07:28:24;19.06;65.63
67942;SHT31;54731;42.600;23.476;2022-09-09T07:30:59;19.08;64.98
67942;SHT31;54731;42.600;23.476;2022-09-09T07:33:28;19.14;64.98
67942;SHT31;54731;42.600;23.476;2022-09-09T07:36:03;19.24;65.09
67942;SHT31;54731;42.600;23.476;2022-09-09T07:38:29;19.28;64.66
67942;SHT31;54731;42.600;23.476;2022-09-09T07:41:03;19.35;63.69
67942;SHT31;54731;42.600;23.476;2022-09-09T07:43:28;19.39;64.19
67942;SHT31;54731;42.600;23.476;2022-09-09T07:45:58;19.48;64.73
67942;SHT31;54731;42.600;23.476;2022-09-09T07:48:23;19.53;63.93
67942;SHT31;54731;42.600;23.476;2022-09-09T07:50:49;19.54;63.96
67942;SHT31;54731;42.600;23.476;2022-09-09T07:53:15;19.61;64.16
67942;SHT31;54731;42.600;23.476;2022-09-09T07:55:40;19.75;63.36
67942;SHT31;54731;42.600;23.476;2022-09-09T07:58:06;19.82;62.98
67942;SHT31;54731;42.600;23.476;2022-09-09T08:00:31;19.85;62.43
67942;SHT31;54731;42.600;23.476;2022-09-09T08:02:58;19.92;61.58
67942;SHT31;54731;42.600;23.476;2022-09-09T08:05:24;19.98;61.08
67942;SHT31;54731;42.600;23.476;2022-09-09T08:07:50;20.08;61.88
67942;SHT31;54731;42.600;23.476;2022-09-09T08:10:15;20.22;62.00
67942;SHT31;54731;42.600;23.476;2022-09-09T08:12:41;20.34;61.29
67942;SHT31;54731;42.600;23.476;2022-09-09T08:15:07;20.43;61.36
67942;SHT31;54731;42.600;23.476;2022-09-09T08:17:32;20.57;61.27
67942;SHT31;54731;42.600;23.476;2022-09-09T08:19:58;20.77;61.43
67942;SHT31;54731;42.600;23.476;2022-09-09T08:22:30;20.88;60.07
67942;SHT31;54731;42.600;23.476;2022-09-09T08:24:56;21.01;61.00
67942;SHT31;54731;42.600;23.476;2022-09-09T08:27:21;21.10;58.65
67942;SHT31;54731;42.600;23.476;2022-09-09T08:29:47;21.14;59.86
67942;SHT31;54731;42.600;23.476;2022-09-09T08:32:13;21.20;60.28
67942;SHT31;54731;42.600;23.476;2022-09-09T08:34:38;21.34;60.12
67942;SHT31;54731;42.600;23.476;2022-09-09T08:37:04;21.47;58.94
67942;SHT31;54731;42.600;23.476;2022-09-09T08:39:29;21.57;58.86
67942;SHT31;54731;42.600;23.476;2022-09-09T08:47:11;21.88;59.60
67942;SHT31;54731;42.600;23.476;2022-09-09T08:55:50;22.40;56.82
67942;SHT31;54731;42.600;23.476;2022-09-09T08:58:25;22.50;57.14
67942;SHT31;54731;42.600;23.476;2022-09-09T09:06:36;22.84;56.88
67942;SHT31;54731;42.600;23.476;2022-09-09T09:11:40;23.00;55.97
67942;SHT31;54731;42.600;23.476;2022-09-09T09:17:02;23.24;55.58
67942;SHT31;54731;42.600;23.476;2022-09-09T09:19:30;23.35;55.87
67942;SHT31;54731;42.600;23.476;2022-09-09T09:22:21;23.49;56.03
67942;SHT31;54731;42.600;23.476;2022-09-09T09:27:35;23.76;54.34
67942;SHT31;54731;42.600;23.476;2022-09-09T09:30:18;23.86;53.60
67942;SHT31;54731;42.600;23.476;2022-09-09T09:32:52;23.99;54.28
67942;SHT31;54731;42.600;23.476;2022-09-09T09:35:18;24.19;53.85
67942;SHT31;54731;42.600;23.476;2022-09-09T09:37:44;24.29;53.05
67942;SHT31;54731;42.600;23.476;2022-09-09T09:40:12;24.39;53.79
67942;SHT31;54731;42.600;23.476;2022-09-09T09:43:16;24.40;52.76
67942;SHT31;54731;42.600;23.476;2022-09-09T09:45:41;24.53;53.25
67942;SHT31;54731;42.600;23.476;2022-09-09T09:48:11;24.64;52.74
67942;SHT31;54731;42.600;23.476;2022-09-09T09:50:47;24.81;52.38
67942;SHT31;54731;42.600;23.476;2022-09-09T09:53:23;25.01;51.59
67942;SHT31;54731;42.600;23.476;2022-09-09T09:55:57;25.05;51.67
67942;SHT31;54731;42.600;23.476;2022-09-09T09:58:23;25.14;51.83
67942;SHT31;54731;42.600;23.476;2022-09-09T10:00:52;25.25;50.41
67942;SHT31;54731;42.600;23.476;2022-09-09T10:05:47;25.45;50.37
67942;SHT31;54731;42.600;23.476;2022-09-09T10:08:15;25.61;49.97
67942;SHT31;54731;42.600;23.476;2022-09-09T10:10:58;25.77;50.23
67942;SHT31;54731;42.600;23.476;2022-09-09T10:33:06;26.40;49.40
67942;SHT31;54731;42.600;23.476;2022-09-09T10:36:23;26.40;48.68
67942;SHT31;54731;42.600;23.476;2022-09-09T10:39:06;26.41;48.62
67942;SHT31;54731;42.600;23.476;2022-09-09T10:41:47;26.50;47.21
67942;SHT31;54731;42.600;23.476;2022-09-09T10:50:13;25.94;48.19
67942;SHT31;54731;42.600;23.476;2022-09-09T10:55:16;25.86;49.05
67942;SHT31;54731;42.600;23.476;2022-09-09T10:57:51;25.76;48.03
67942;SHT31;54731;42.600;23.476;2022-09-09T11:02:56;25.61;48.33
67942;SHT31;54731;42.600;23.476;2022-09-09T11:05:31;25.55;48.67
67942;SHT31;54731;42.600;23.476;2022-09-09T11:13:35;25.47;49.38
67942;SHT31;54731;42.600;23.476;2022-09-09T11:16:16;25.43;49.62
67942;SHT31;54731;42.600;23.476;2022-09-09T11:18:46;25.39;49.72
67942;SHT31;54731;42.600;23.476;2022-09-09T11:21:35;25.22;50.86
67942;SHT31;54731;42.600;23.476;2022-09-09T11:24:06;25.21;49.61
67942;SHT31;54731;42.600;23.476;2022-09-09T11:26:50;25.15;50.23
67942;SHT31;54731;42.600;23.476;2022-09-09T11:38:18;24.98;49.58
67942;SHT31;54731;42.600;23.476;2022-09-09T11:40:45;24.96;50.00
67942;SHT31;54731;42.600;23.476;2022-09-09T11:43:14;24.96;48.82
67942;SHT31;54731;42.600;23.476;2022-09-09T11:45:41;24.98;49.00
67942;SHT31;54731;42.600;23.476;2022-09-09T11:48:31;24.99;50.00
67942;SHT31;54731;42.600;23.476;2022-09-09T11:51:09;25.07;49.40
67942;SHT31;54731;42.600;23.476;2022-09-09T11:53:50;25.07;50.18
67942;SHT31;54731;42.600;23.476;2022-09-09T11:56:31;25.08;49.83
67942;SHT31;54731;42.600;23.476;2022-09-09T11:59:00;25.14;50.49
67942;SHT31;54731;42.600;23.476;2022-09-09T12:01:29;25.16;48.89
67942;SHT31;54731;42.600;23.476;2022-09-09T12:19:39;25.16;51.17
67942;SHT31;54731;42.600;23.476;2022-09-09T12:30:29;25.36;51.82
67942;SHT31;54731;42.600;23.476;2022-09-09T12:33:10;25.32;51.36
67942;SHT31;54731;42.600;23.476;2022-09-09T12:35:38;25.42;51.13
67942;SHT31;54731;42.600;23.476;2022-09-09T12:38:05;25.55;51.21
67942;SHT31;54731;42.600;23.476;2022-09-09T12:40:33;25.52;49.75
67942;SHT31;54731;42.600;23.476;2022-09-09T12:43:01;25.52;49.54
67942;SHT31;54731;42.600;23.476;2022-09-09T12:45:30;25.43;50.70
67942;SHT31;54731;42.600;23.476;2022-09-09T12:48:03;25.46;48.91
67942;SHT31;54731;42.600;23.476;2022-09-09T12:50:33;25.45;50.47
67942;SHT31;54731;42.600;23.476;2022-09-09T12:53:12;25.45;51.21
67942;SHT31;54731;42.600;23.476;2022-09-09T12:55:55;25.52;50.35
67942;SHT31;54731;42.600;23.476;2022-09-09T12:58:21;25.55;50.97
67942;SHT31;54731;42.600;23.476;2022-09-09T13:00:52;25.65;50.43
67942;SHT31;54731;42.600;23.476;2022-09-09T13:03:19;25.70;48.84
67942;SHT31;54731;42.600;23.476;2022-09-09T13:05:48;25.76;49.15
67942;SHT31;54731;42.600;23.476;2022-09-09T13:08:15;25.79;50.92
67942;SHT31;54731;42.600;23.476;2022-09-09T13:11:02;25.79;49.81
67942;SHT31;54731;42.600;23.476;2022-09-09T13:13:38;25.79;48.46
67942;SHT31;54731;42.600;23.476;2022-09-09T13:16:06;25.82;50.42
67942;SHT31;54731;42.600;23.476;2022-09-09T13:18:39;25.89;50.37
67942;SHT31;54731;42.600;23.476;2022-09-09T13:21:05;25.94;50.47
67942;SHT31;54731;42.600;23.476;2022-09-09T13:23:33;26.06;50.63
67942;SHT31;54731;42.600;23.476;2022-09-09T13:26:03;26.21;50.74
67942;SHT31;54731;42.600;23.476;2022-09-09T13:28:30;26.27;49.97
67942;SHT31;54731;42.600;23.476;2022-09-09T13:31:00;26.28;49.93
67942;SHT31;54731;42.600;23.476;2022-09-09T13:33:32;26.30;49.92
67942;SHT31;54731;42.600;23.476;2022-09-09T13:36:02;26.43;50.46
67942;SHT31;54731;42.600;23.476;2022-09-09T13:38:36;26.54;49.71
67942;SHT31;54731;42.600;23.476;2022-09-09T13:41:10;26.58;49.03
67942;SHT31;54731;42.600;23.476;2022-09-09T13:43:45;26.62;49.07
67942;SHT31;54731;42.600;23.476;2022-09-09T13:49:02;26.80;49.22
67942;SHT31;54731;42.600;23.476;2022-09-09T13:51:38;26.78;49.03
67942;SHT31;54731;42.600;23.476;2022-09-09T13:54:05;26.47;50.03
67942;SHT31;54731;42.600;23.476;2022-09-09T13:56:34;26.30;51.29
67942;SHT31;54731;42.600;23.476;2022-09-09T13:59:01;26.27;51.07
67942;SHT31;54731;42.600;23.476;2022-09-09T14:01:27;26.24;52.10
67942;SHT31;54731;42.600;23.476;2022-09-09T14:03:53;26.28;52.11
67942;SHT31;54731;42.600;23.476;2022-09-09T14:06:19;26.14;51.27
67942;SHT31;54731;42.600;23.476;2022-09-09T14:08:47;26.21;51.40
67942;SHT31;54731;42.600;23.476;2022-09-09T14:11:13;26.08;51.86
67942;SHT31;54731;42.600;23.476;2022-09-09T14:13:38;25.96;51.91
67942;SHT31;54731;42.600;23.476;2022-09-09T14:16:04;25.89;52.52
67942;SHT31;54731;42.600;23.476;2022-09-09T14:18:29;25.87;52.34
67942;SHT31;54731;42.600;23.476;2022-09-09T14:20:55;25.86;52.51
67942;SHT31;54731;42.600;23.476;2022-09-09T14:23:22;25.83;52.38
67942;SHT31;54731;42.600;23.476;2022-09-09T14:25:47;25.77;52.80
67942;SHT31;54731;42.600;23.476;2022-09-09T14:28:14;25.66;52.14
67942;SHT31;54731;42.600;23.476;2022-09-09T14:30:41;25.66;53.19
67942;SHT31;54731;42.600;23.476;2022-09-09T14:33:08;25.77;52.30
67942;SHT31;54731;42.600;23.476;2022-09-09T14:35:34;25.72;52.55
67942;SHT31;54731;42.600;23.476;2022-09-09T14:38:02;25.70;52.50
67942;SHT31;54731;42.600;23.476;2022-09-09T14:40:28;25.72;52.86
67942;SHT31;54731;42.600;23.476;2022-09-09T14:42:53;25.85;51.97
67942;SHT31;54731;42.600;23.476;2022-09-09T14:45:19;25.87;51.28
67942;SHT31;54731;42.600;23.476;2022-09-09T14:47:46;25.82;51.17
67942;SHT31;54731;42.600;23.476;2022-09-09T14:50:12;25.89;51.39
67942;SHT31;54731;42.600;23.476;2022-09-09T14:52:39;26.00;50.59
67942;SHT31;54731;42.600;23.476;2022-09-09T14:55:04;26.10;50.56
67942;SHT31;54731;42.600;23.476;2022-09-09T14:57:30;26.23;49.88
67942;SHT31;54731;42.600;23.476;2022-09-09T14:59:56;26.33;50.35
67942;SHT31;54731;42.600;23.476;2022-09-09T15:02:22;26.48;50.71
67942;SHT31;54731;42.600;23.476;2022-09-09T15:04:47;26.58;50.67
67942;SHT31;54731;42.600;23.476;2022-09-09T15:07:15;26.80;49.97
67942;SHT31;54731;42.600;23.476;2022-09-09T15:09:41;26.84;49.67
67942;SHT31;54731;42.600;23.476;2022-09-09T15:12:07;26.94;49.93
67942;SHT31;54731;42.600;23.476;2022-09-09T15:14:33;27.08;48.96
67942;SHT31;54731;42.600;23.476;2022-09-09T15:16:58;27.18;48.34
67942;SHT31;54731;42.600;23.476;2022-09-09T15:19:23;27.23;46.78
67942;SHT31;54731;42.600;23.476;2022-09-09T15:21:49;27.13;47.52
67942;SHT31;54731;42.600;23.476;2022-09-09T15:24:15;27.23;47.58
67942;SHT31;54731;42.600;23.476;2022-09-09T15:26:41;27.43;47.17
67942;SHT31;54731;42.600;23.476;2022-09-09T15:29:07;27.53;46.87
67942;SHT31;54731;42.600;23.476;2022-09-09T15:31:33;27.57;47.41
67942;SHT31;54731;42.600;23.476;2022-09-09T15:34:08;27.45;47.33
67942;SHT31;54731;42.600;23.476;2022-09-09T15:36:42;27.39;47.46
67942;SHT31;54731;42.600;23.476;2022-09-09T15:39:10;27.31;47.74
67942;SHT31;54731;42.600;23.476;2022-09-09T15:41:38;27.32;47.42
67942;SHT31;54731;42.600;23.476;2022-09-09T15:44:04;27.23;48.00
67942;SHT31;54731;42.600;23.476;2022-09-09T15:46:37;27.15;48.02
67942;SHT31;54731;42.600;23.476;2022-09-09T15:49:07;27.11;48.11
67942;SHT31;54731;42.600;23.476;2022-09-09T15:51:34;27.13;48.53
67942;SHT31;54731;42.600;23.476;2022-09-09T15:54:01;27.03;49.86
67942;SHT31;54731;42.600;23.476;2022-09-09T15:56:28;26.81;49.91
67942;SHT31;54731;42.600;23.476;2022-09-09T15:58:56;26.78;49.32
67942;SHT31;54731;42.600;23.476;2022-09-09T16:01:23;26.60;48.96
67942;SHT31;54731;42.600;23.476;2022-09-09T16:03:49;26.51;49.89
67942;SHT31;54731;42.600;23.476;2022-09-09T16:06:22;26.41;49.60
67942;SHT31;54731;42.600;23.476;2022-09-09T16:08:50;26.38;53.41
67942;SHT31;54731;42.600;23.476;2022-09-09T16:11:18;26.60;51.44
67942;SHT31;54731;42.600;23.476;2022-09-09T16:13:46;26.70;52.88
67942;SHT31;54731;42.600;23.476;2022-09-09T16:16:13;26.60;53.13
67942;SHT31;54731;42.600;23.476;2022-09-09T16:19:08;26.60;52.70
67942;SHT31;54731;42.600;23.476;2022-09-09T16:21:40;26.60;52.65
67942;SHT31;54731;42.600;23.476;2022-09-09T16:24:09;26.48;53.86
67942;SHT31;54731;42.600;23.476;2022-09-09T16:26:36;26.45;53.23
67942;SHT31;54731;42.600;23.476;2022-09-09T16:29:02;26.27;50.98
67942;SHT31;54731;42.600;23.476;2022-09-09T16:31:29;26.18;53.20
67942;SHT31;54731;42.600;23.476;2022-09-09T16:33:56;26.13;52.64
67942;SHT31;54731;42.600;23.476;2022-09-09T16:36:27;25.93;52.96
67942;SHT31;54731;42.600;23.476;2022-09-09T16:38:57;25.92;53.84
67942;SHT31;54731;42.600;23.476;2022-09-09T16:41:25;25.67;53.43
67942;SHT31;54731;42.600;23.476;2022-09-09T16:43:57;25.53;52.67
67942;SHT31;54731;42.600;23.476;2022-09-09T16:46:25;25.36;52.85
67942;SHT31;54731;42.600;23.476;2022-09-09T16:48:52;25.08;53.79
67942;SHT31;54731;42.600;23.476;2022-09-09T16:51:26;24.91;53.74
67942;SHT31;54731;42.600;23.476;2022-09-09T16:53:52;24.71;54.13
67942;SHT31;54731;42.600;23.476;2022-09-09T16:56:20;24.65;54.80
67942;SHT31;54731;42.600;23.476;2022-09-09T16:58:54;24.61;54.96
67942;SHT31;54731;42.600;23.476;2022-09-09T17:01:21;24.47;55.02
67942;SHT31;54731;42.600;23.476;2022-09-09T17:03:47;24.33;55.30
67942;SHT31;54731;42.600;23.476;2022-09-09T17:06:14;24.16;55.96
67942;SHT31;54731;42.600;23.476;2022-09-09T17:08:41;24.10;55.79
67942;SHT31;54731;42.600;23.476;2022-09-09T17:11:15;23.97;55.70
67942;SHT31;54731;42.600;23.476;2022-09-09T17:13:46;23.90;56.12
67942;SHT31;54731;42.600;23.476;2022-09-09T17:16:13;23.80;56.22
67942;SHT31;54731;42.600;23.476;2022-09-09T17:18:40;23.72;56.55
67942;SHT31;54731;42.600;23.476;2022-09-09T17:21:12;23.68;56.77
67942;SHT31;54731;42.600;23.476;2022-09-09T17:23:38;23.63;56.90
67942;SHT31;54731;42.600;23.476;2022-09-09T17:26:09;23.58;57.23
67942;SHT31;54731;42.600;23.476;2022-09-09T17:28:36;23.34;58.28
67942;SHT31;54731;42.600;23.476;2022-09-09T17:31:05;23.18;59.04
67942;SHT31;54731;42.600;23.476;2022-09-09T17:33:33;23.05;59.63
67942;SHT31;54731;42.600;23.476;2022-09-09T17:36:02;23.05;59.99
67942;SHT31;54731;42.600;23.476;2022-09-09T17:38:31;22.97;60.17
67942;SHT31;54731;42.600;23.476;2022-09-09T17:41:05;22.95;60.28
67942;SHT31;54731;42.600;23.476;2022-09-09T17:43:31;22.86;60.62
67942;SHT31;54731;42.600;23.476;2022-09-09T17:48:36;22.84;60.69
67942;SHT31;54731;42.600;23.476;2022-09-09T17:51:04;22.80;60.95
67942;SHT31;54731;42.600;23.476;2022-09-09T17:53:30;22.68;61.36
67942;SHT31;54731;42.600;23.476;2022-09-09T17:56:05;22.54;62.06
67942;SHT31;54731;42.600;23.476;2022-09-09T17:58:31;22.54;61.91
67942;SHT31;54731;42.600;23.476;2022-09-09T18:01:23;22.57;62.34
67942;SHT31;54731;42.600;23.476;2022-09-09T18:03:48;22.59;62.03